createdAt,value
2023-03-04T00:01:29.627Z,6.80
2023-03-04T00:03:57.423Z,6.53
2023-03-04T00:06:25.207Z,6.33
2023-03-04T00:08:53.308Z,6.13
2023-03-04T00:11:21.261Z,5.80
2023-03-04T00:13:49.935Z,5.47
2023-03-04T00:16:17.909Z,5.60
2023-03-04T00:18:47.701Z,5.50
2023-03-04T00:21:16.934Z,5.87
2023-03-04T00:23:44.824Z,4.83
2023-03-04T00:26:13.773Z,4.77
2023-03-04T00:28:41.975Z,4.37
2023-03-04T00:31:10.419Z,4.57
2023-03-04T00:33:38.645Z,4.23
2023-03-04T00:36:09.370Z,5.23
2023-03-04T00:38:37.196Z,4.50
2023-03-04T00:41:05.168Z,4.20
2023-03-04T00:43:33.334Z,4.33
2023-03-04T00:46:01.645Z,4.83
2023-03-04T00:48:29.610Z,4.33
2023-03-04T00:50:57.482Z,3.73
2023-03-04T00:53:26.626Z,4.20
2023-03-04T00:55:54.407Z,4.10
2023-03-04T00:58:23.311Z,4.30
2023-03-04T01:00:51.074Z,3.93
2023-03-04T01:03:18.917Z,4.13
2023-03-04T01:05:47.454Z,4.00
2023-03-04T01:08:15.392Z,4.07
2023-03-04T01:10:44.704Z,3.27
2023-03-04T01:13:12.358Z,3.23
2023-03-04T01:15:40.268Z,3.50
2023-03-04T01:18:08.211Z,3.30
2023-03-04T01:20:36.651Z,4.33
2023-03-04T01:23:04.594Z,3.53
2023-03-04T01:25:32.468Z,3.00
2023-03-04T01:28:01.796Z,3.50
2023-03-04T01:30:29.841Z,3.53
2023-03-04T01:32:57.802Z,3.17
2023-03-04T01:35:26.019Z,3.23
2023-03-04T01:37:53.750Z,3.67
2023-03-04T01:40:22.977Z,3.50
2023-03-04T01:42:50.853Z,3.13
2023-03-04T01:45:21.458Z,3.33
2023-03-04T01:47:51.238Z,3.93
2023-03-04T01:50:23.299Z,2.70
2023-03-04T01:52:51.377Z,3.57
2023-03-04T01:55:20.993Z,3.60
2023-03-04T01:57:50.270Z,3.50
2023-03-04T02:00:38.040Z,3.67
2023-03-04T02:03:08.670Z,3.00
2023-03-04T02:05:38.390Z,3.17
2023-03-04T02:08:07.166Z,4.10
2023-03-04T02:10:35.260Z,3.10
2023-03-04T02:13:05.387Z,3.13
2023-03-04T02:15:33.922Z,2.73
2023-03-04T02:18:04.282Z,3.33
2023-03-04T02:20:41.999Z,3.47
2023-03-04T02:23:16.258Z,4.00
2023-03-04T02:25:48.750Z,3.93
2023-03-04T02:28:18.720Z,3.80
2023-03-04T02:30:47.030Z,4.07
2023-03-04T02:33:18.107Z,3.90
2023-03-04T02:35:46.321Z,4.10
2023-03-04T02:38:14.804Z,4.23
2023-03-04T02:40:46.103Z,3.67
2023-03-04T02:43:14.140Z,4.23
2023-03-04T02:45:46.225Z,3.80
2023-03-04T02:48:14.815Z,3.60
2023-03-04T02:50:45.353Z,3.60
2023-03-04T02:53:13.340Z,4.13
2023-03-04T02:55:42.387Z,4.30
2023-03-04T02:58:10.592Z,3.37
2023-03-04T03:00:39.121Z,3.77
2023-03-04T03:03:09.746Z,3.47
2023-03-04T03:05:39.189Z,2.87
2023-03-04T03:08:07.373Z,3.40
2023-03-04T03:10:35.561Z,3.23
2023-03-04T03:13:03.224Z,3.53
2023-03-04T03:15:31.768Z,3.00
2023-03-04T03:17:59.690Z,3.30
2023-03-04T03:20:28.790Z,3.13
2023-03-04T03:22:56.442Z,3.20
2023-03-04T03:25:24.169Z,2.90
2023-03-04T03:27:52.330Z,3.00
2023-03-04T03:30:20.307Z,2.83
2023-03-04T03:32:49.366Z,3.17
2023-03-04T03:35:17.272Z,3.30
2023-03-04T03:37:46.698Z,3.07
2023-03-04T03:40:15.079Z,2.83
2023-03-04T03:42:43.580Z,3.10
2023-03-04T03:45:12.851Z,3.00
2023-03-04T03:47:40.696Z,3.50
2023-03-04T03:50:11.149Z,3.03
2023-03-04T03:52:39.097Z,3.07
2023-03-04T03:55:09.201Z,3.83
2023-03-04T03:57:36.830Z,3.20
2023-03-04T04:00:05.620Z,2.83
2023-03-04T04:02:33.606Z,4.10
2023-03-04T04:05:01.440Z,3.37
2023-03-04T04:07:29.208Z,3.47
2023-03-04T04:09:57.868Z,3.00
2023-03-04T04:12:28.489Z,3.30
2023-03-04T04:14:56.410Z,3.17
2023-03-04T04:17:24.502Z,3.33
2023-03-04T04:19:52.192Z,2.87
2023-03-04T04:22:21.665Z,2.97
2023-03-04T04:24:50.088Z,2.77
2023-03-04T04:27:19.198Z,3.23
2023-03-04T04:29:48.571Z,3.70
2023-03-04T04:32:16.270Z,3.33
2023-03-04T04:34:44.658Z,3.27
2023-03-04T04:37:12.772Z,3.00
2023-03-04T04:39:40.733Z,2.70
2023-03-04T04:42:08.507Z,2.87
2023-03-04T04:44:39.237Z,2.87
2023-03-04T04:47:08.605Z,2.97
2023-03-04T04:49:37.259Z,2.63
2023-03-04T04:52:05.358Z,1.97
2023-03-04T04:54:33.317Z,2.73
2023-03-04T04:57:01.250Z,2.27
2023-03-04T04:59:29.560Z,2.20
2023-03-04T05:01:57.568Z,3.00
2023-03-04T05:04:26.760Z,3.70
2023-03-04T05:06:54.637Z,2.30
2023-03-04T05:09:23.515Z,2.40
2023-03-04T05:11:52.284Z,2.47
2023-03-04T05:14:20.385Z,2.30
2023-03-04T05:16:48.154Z,2.57
2023-03-04T05:19:15.821Z,3.33
2023-03-04T05:21:44.832Z,2.93
2023-03-04T05:24:12.849Z,3.80
2023-03-04T05:26:40.668Z,2.67
2023-03-04T05:29:08.784Z,4.37
2023-03-04T05:31:36.639Z,3.40
2023-03-04T05:34:04.529Z,2.73
2023-03-04T05:36:32.641Z,3.73
2023-03-04T05:39:02.070Z,3.00
2023-03-04T05:41:29.791Z,2.53
2023-03-04T05:43:58.698Z,2.37
2023-03-04T05:46:26.617Z,2.00
2023-03-04T05:48:55.279Z,2.83
2023-03-04T05:51:24.134Z,3.17
2023-03-04T05:53:52.353Z,2.70
2023-03-04T05:56:22.057Z,2.30
2023-03-04T05:58:49.996Z,2.90
2023-03-04T06:01:18.566Z,2.97
2023-03-04T06:03:48.762Z,2.80
2023-03-04T06:06:21.819Z,3.37
2023-03-04T06:08:49.551Z,2.50
2023-03-04T06:11:17.294Z,2.67
2023-03-04T06:13:46.442Z,2.90
2023-03-04T06:16:14.416Z,2.60
2023-03-04T06:18:42.462Z,3.07
2023-03-04T06:21:10.493Z,3.60
2023-03-04T06:23:39.337Z,2.87
2023-03-04T06:26:10.206Z,2.83
2023-03-04T06:28:39.525Z,2.87
2023-03-04T06:31:09.090Z,3.20
2023-03-04T06:33:36.972Z,4.17
2023-03-04T06:36:05.613Z,3.60
2023-03-04T06:38:33.230Z,4.00
2023-03-04T06:41:08.224Z,3.33
2023-03-04T06:43:36.237Z,3.90
2023-03-04T06:46:04.434Z,3.20
2023-03-04T06:48:33.760Z,3.93
2023-03-04T06:51:06.814Z,4.40
2023-03-04T06:53:34.599Z,5.07
2023-03-04T06:56:02.475Z,4.70
2023-03-04T06:58:30.393Z,3.70
2023-03-04T07:00:58.374Z,4.70
2023-03-04T07:03:26.499Z,4.77
2023-03-04T07:05:57.069Z,4.20
2023-03-04T07:08:24.852Z,3.43
2023-03-04T07:10:52.535Z,6.70
2023-03-04T07:13:21.488Z,3.70
2023-03-04T07:15:49.525Z,4.00
2023-03-04T07:18:17.230Z,8.53
2023-03-04T07:20:45.031Z,4.60
2023-03-04T07:23:14.239Z,3.83
2023-03-04T07:25:41.882Z,3.70
2023-03-04T07:28:09.792Z,4.50
2023-03-04T07:30:38.183Z,7.63
2023-03-04T07:33:05.929Z,4.77
2023-03-04T07:35:33.620Z,3.57
2023-03-04T07:38:02.055Z,3.20
2023-03-04T07:40:31.721Z,2.47
2023-03-04T07:43:00.539Z,2.87
2023-03-04T07:45:29.486Z,2.73
2023-03-04T07:47:59.310Z,4.00
2023-03-04T07:50:27.157Z,2.30
2023-03-04T07:52:55.196Z,3.03
2023-03-04T07:55:22.908Z,4.47
2023-03-04T07:57:51.891Z,3.87
2023-03-04T08:00:21.107Z,2.63
2023-03-04T08:02:49.585Z,2.37
2023-03-04T08:05:17.775Z,6.10
2023-03-04T08:07:46.108Z,8.10
2023-03-04T08:10:14.618Z,6.53
2023-03-04T08:12:42.545Z,3.43
2023-03-04T08:15:13.977Z,3.60
2023-03-04T08:17:41.722Z,5.13
2023-03-04T08:20:12.922Z,8.50
2023-03-04T08:22:41.133Z,17.77
2023-03-04T08:25:10.721Z,12.37
2023-03-04T08:27:38.752Z,4.60
2023-03-04T08:30:07.902Z,5.57
2023-03-04T08:32:37.144Z,3.33
2023-03-04T08:35:05.656Z,9.43
2023-03-04T08:37:34.550Z,4.70
2023-03-04T08:40:02.284Z,8.90
2023-03-04T08:42:30.074Z,6.70
2023-03-04T08:44:57.772Z,11.80
2023-03-04T08:47:25.773Z,6.63
2023-03-04T08:49:55.272Z,10.93
2023-03-04T08:52:23.638Z,10.20
2023-03-04T08:54:51.544Z,4.20
2023-03-04T08:57:19.530Z,2.53
2023-03-04T08:59:47.276Z,4.90
2023-03-04T09:02:15.086Z,11.63
2023-03-04T09:04:42.808Z,10.87
2023-03-04T09:07:14.123Z,9.23
2023-03-04T09:09:42.802Z,10.60
2023-03-04T09:12:11.124Z,9.13
2023-03-04T09:14:38.845Z,5.27
2023-03-04T09:17:08.175Z,10.30
2023-03-04T09:19:35.899Z,12.80
2023-03-04T09:22:04.916Z,14.63
2023-03-04T09:24:35.563Z,8.77
2023-03-04T09:27:04.021Z,8.40
2023-03-04T09:29:32.013Z,10.93
2023-03-04T09:31:59.682Z,7.17
2023-03-04T09:34:28.660Z,4.77
2023-03-04T09:36:57.564Z,8.37
2023-03-04T09:39:25.375Z,8.60
2023-03-04T09:41:59.309Z,4.80
2023-03-04T09:44:32.516Z,3.00
2023-03-04T09:47:03.880Z,8.57
2023-03-04T09:49:32.522Z,11.37
2023-03-04T09:52:07.164Z,10.07
2023-03-04T09:54:56.632Z,11.67
2023-03-04T09:57:42.018Z,12.43
2023-03-04T10:00:20.027Z,5.37
2023-03-04T10:03:04.943Z,2.97
2023-03-04T10:05:35.454Z,2.83
2023-03-04T10:08:17.450Z,3.57
2023-03-04T10:10:46.952Z,3.37
2023-03-04T10:13:20.893Z,3.60
2023-03-04T10:15:51.813Z,2.07
2023-03-04T10:18:23.154Z,4.80
2023-03-04T10:20:58.254Z,4.13
2023-03-04T10:23:29.008Z,4.00
2023-03-04T10:25:57.980Z,2.87
2023-03-04T10:28:30.892Z,16.37
2023-03-04T10:31:03.023Z,4.53
2023-03-04T10:33:32.915Z,2.27
2023-03-04T10:36:03.771Z,2.70
2023-03-04T10:38:34.869Z,3.90
2023-03-04T10:41:12.650Z,2.60
2023-03-04T10:43:46.785Z,4.23
2023-03-04T10:46:16.785Z,3.37
2023-03-04T10:48:46.262Z,2.57
2023-03-04T10:51:20.360Z,3.00
2023-03-04T10:53:51.368Z,2.57
2023-03-04T10:56:37.778Z,2.13
2023-03-04T10:59:32.575Z,1.90
2023-03-04T11:02:01.090Z,1.83
2023-03-04T11:04:34.016Z,2.43
2023-03-04T11:07:02.271Z,2.10
2023-03-04T11:09:31.803Z,1.40
2023-03-04T11:12:02.133Z,2.03
2023-03-04T11:14:38.104Z,1.87
2023-03-04T11:17:22.044Z,1.70
2023-03-04T11:19:55.743Z,1.60
2023-03-04T11:22:25.401Z,2.00
2023-03-04T11:25:06.664Z,1.93
2023-03-04T11:27:41.370Z,1.73
2023-03-04T11:30:30.276Z,2.20
2023-03-04T11:33:05.132Z,1.80
2023-03-04T11:35:40.362Z,3.00
2023-03-04T11:38:18.268Z,8.23
2023-03-04T11:40:48.726Z,5.33
2023-03-04T11:43:20.694Z,2.37
2023-03-04T11:46:05.844Z,2.17
2023-03-04T11:48:47.926Z,1.87
2023-03-04T11:51:22.912Z,1.93
2023-03-04T11:54:07.064Z,2.53
2023-03-04T11:56:39.011Z,1.80
2023-03-04T11:59:32.022Z,1.90
2023-03-04T12:02:12.751Z,1.57
2023-03-04T12:05:00.518Z,1.97
2023-03-04T12:07:47.507Z,1.93
2023-03-04T12:10:26.983Z,2.00
2023-03-04T12:13:11.949Z,2.30
2023-03-04T12:15:49.202Z,1.83
2023-03-04T12:18:35.596Z,2.60
2023-03-04T12:21:21.080Z,1.80
2023-03-04T12:24:09.741Z,1.93
2023-03-04T12:26:41.373Z,1.83
2023-03-04T12:29:16.875Z,2.33
2023-03-04T12:31:47.690Z,1.90
2023-03-04T12:34:31.578Z,2.03
2023-03-04T12:37:12.122Z,2.57
2023-03-04T12:39:42.832Z,1.90
2023-03-04T12:42:24.512Z,1.70
2023-03-04T12:45:04.337Z,2.07
2023-03-04T12:47:42.012Z,1.73
2023-03-04T12:50:32.372Z,1.70
2023-03-04T12:53:10.706Z,1.80
2023-03-04T12:55:41.790Z,2.27
2023-03-04T12:58:18.023Z,1.77
2023-03-04T13:00:55.204Z,2.07
2023-03-04T13:03:27.646Z,2.00
2023-03-04T13:06:08.654Z,2.10
2023-03-04T13:08:46.079Z,2.03
2023-03-04T13:11:43.816Z,2.10
2023-03-04T13:14:26.117Z,2.37
2023-03-04T13:16:55.848Z,2.17
2023-03-04T13:19:53.068Z,1.93
2023-03-04T13:22:49.363Z,2.23
2023-03-04T13:25:40.126Z,2.10
2023-03-04T13:28:18.793Z,2.37
2023-03-04T13:31:22.330Z,2.10
2023-03-04T13:33:59.612Z,1.90
2023-03-04T13:36:55.897Z,2.20
2023-03-04T13:39:34.714Z,2.00
2023-03-04T13:42:04.794Z,1.90
2023-03-04T13:45:00.729Z,2.00
2023-03-04T13:47:42.818Z,2.20
2023-03-04T13:50:31.835Z,1.80
2023-03-04T13:53:21.309Z,2.00
2023-03-04T13:56:18.687Z,1.43
2023-03-04T13:58:47.032Z,1.53
2023-03-04T14:01:31.810Z,2.00
2023-03-04T14:04:00.265Z,1.60
2023-03-04T14:06:29.741Z,1.50
2023-03-04T14:08:59.467Z,1.57
2023-03-04T14:11:32.674Z,1.53
2023-03-04T14:14:05.128Z,2.47
2023-03-04T14:16:38.017Z,3.17
2023-03-04T14:19:07.709Z,3.23
2023-03-04T14:21:36.938Z,3.20
2023-03-04T14:24:07.998Z,1.63
2023-03-04T14:26:37.353Z,2.43
2023-03-04T14:29:22.392Z,2.40
2023-03-04T14:31:50.630Z,1.43
2023-03-04T14:34:24.902Z,1.60
2023-03-04T14:36:52.709Z,1.50
2023-03-04T14:39:22.535Z,1.83
2023-03-04T14:41:54.999Z,2.10
2023-03-04T14:44:30.223Z,2.27
2023-03-04T14:47:08.082Z,1.70
2023-03-04T14:49:37.585Z,1.70
2023-03-04T14:52:05.571Z,1.93
2023-03-04T14:54:36.536Z,1.63
2023-03-04T14:57:26.125Z,2.70
2023-03-04T14:59:55.032Z,1.60
2023-03-04T15:02:31.642Z,2.30
2023-03-04T15:05:03.113Z,2.43
2023-03-04T15:07:35.039Z,1.40
2023-03-04T15:10:04.686Z,2.00
2023-03-04T15:12:38.113Z,2.00
2023-03-04T15:15:22.476Z,2.00
2023-03-04T15:17:59.835Z,1.80
2023-03-04T15:20:28.790Z,2.20
2023-03-04T15:23:07.166Z,2.20
2023-03-04T15:25:35.850Z,2.30
2023-03-04T15:28:05.605Z,2.10
2023-03-04T15:30:35.450Z,2.33
2023-03-04T15:33:03.266Z,2.43
2023-03-04T15:35:34.365Z,2.00
2023-03-04T15:38:02.841Z,2.03
2023-03-04T15:40:33.739Z,2.30
2023-03-04T15:43:04.156Z,2.23
2023-03-04T15:45:36.927Z,2.23
2023-03-04T15:48:08.046Z,2.27
2023-03-04T15:50:38.653Z,3.37
2023-03-04T15:53:10.053Z,2.57
2023-03-04T15:55:39.202Z,2.77
2023-03-04T15:58:07.414Z,2.37
2023-03-04T16:00:37.318Z,2.27
2023-03-04T16:03:06.383Z,1.47
2023-03-04T16:05:37.786Z,1.87
2023-03-04T16:08:06.268Z,2.00
2023-03-04T16:10:34.508Z,1.80
2023-03-04T16:13:02.219Z,1.90
2023-03-04T16:15:31.163Z,1.60
2023-03-04T16:18:00.839Z,2.20
2023-03-04T16:20:30.681Z,1.90
2023-03-04T16:23:00.777Z,2.57
2023-03-04T16:25:30.498Z,2.53
2023-03-04T16:28:02.876Z,1.70
2023-03-04T16:30:30.977Z,2.07
2023-03-04T16:33:00.340Z,2.00
2023-03-04T16:35:29.187Z,1.70
2023-03-04T16:37:57.466Z,1.60
2023-03-04T16:40:27.510Z,1.90
2023-03-04T16:42:55.329Z,2.57
2023-03-04T16:45:25.229Z,2.00
2023-03-04T16:47:53.740Z,2.20
2023-03-04T16:50:27.488Z,1.60
2023-03-04T16:52:56.631Z,2.70
2023-03-04T16:55:26.542Z,2.10
2023-03-04T16:57:55.135Z,2.47
2023-03-04T17:00:25.491Z,2.63
2023-03-04T17:02:57.952Z,3.23
2023-03-04T17:05:30.120Z,2.50
2023-03-04T17:07:58.146Z,2.90
2023-03-04T17:10:27.915Z,2.20
2023-03-04T17:12:56.063Z,3.13
2023-03-04T17:15:24.576Z,4.60
2023-03-04T17:17:53.257Z,5.87
2023-03-04T17:20:21.668Z,4.20
2023-03-04T17:22:52.948Z,3.40
2023-03-04T17:25:21.447Z,4.77
2023-03-04T17:27:49.242Z,2.40
2023-03-04T17:30:17.557Z,3.20
2023-03-04T17:32:45.568Z,2.97
2023-03-04T17:35:13.289Z,2.00
2023-03-04T17:37:41.584Z,2.00
2023-03-04T17:40:14.319Z,2.33
2023-03-04T17:42:42.681Z,2.60
2023-03-04T17:45:11.833Z,2.40
2023-03-04T17:47:39.629Z,2.53
2023-03-04T17:50:09.403Z,2.60
2023-03-04T17:52:37.225Z,2.30
2023-03-04T17:55:05.422Z,2.47
2023-03-04T17:57:37.586Z,2.20
2023-03-04T18:00:06.797Z,2.23
2023-03-04T18:02:34.810Z,2.10
2023-03-04T18:05:06.861Z,2.53
2023-03-04T18:07:35.226Z,2.10
2023-03-04T18:10:03.056Z,2.63
2023-03-04T18:12:31.679Z,2.23
2023-03-04T18:15:00.954Z,2.50
2023-03-04T18:17:28.774Z,1.93
2023-03-04T18:19:57.274Z,2.13
2023-03-04T18:22:25.097Z,2.23
2023-03-04T18:24:52.955Z,2.23
2023-03-04T18:27:20.926Z,2.20
2023-03-04T18:29:48.554Z,3.40
2023-03-04T18:32:17.719Z,2.10
2023-03-04T18:34:45.733Z,2.67
2023-03-04T18:37:13.654Z,2.40
2023-03-04T18:39:42.337Z,2.13
2023-03-04T18:42:10.110Z,2.17
2023-03-04T18:44:38.257Z,2.50
2023-03-04T18:47:06.902Z,2.00
2023-03-04T18:49:36.081Z,1.67
2023-03-04T18:52:03.933Z,2.00
2023-03-04T18:54:32.203Z,2.33
2023-03-04T18:57:03.188Z,2.07
2023-03-04T18:59:37.133Z,1.90
2023-03-04T19:02:09.946Z,2.10
2023-03-04T19:04:40.210Z,1.60
2023-03-04T19:07:08.080Z,2.70
2023-03-04T19:09:36.133Z,2.80
2023-03-04T19:12:06.704Z,1.70
2023-03-04T19:14:34.783Z,2.90
2023-03-04T19:17:02.797Z,3.43
2023-03-04T19:19:30.612Z,3.00
2023-03-04T19:22:00.864Z,3.57
2023-03-04T19:24:30.592Z,3.07
2023-03-04T19:26:58.410Z,2.37
2023-03-04T19:29:26.330Z,3.17
2023-03-04T19:31:54.002Z,4.20
2023-03-04T19:34:21.789Z,3.40
2023-03-04T19:36:50.146Z,3.43
2023-03-04T19:39:19.626Z,3.00
2023-03-04T19:41:47.718Z,2.67
2023-03-04T19:44:15.466Z,2.60
2023-03-04T19:46:43.246Z,6.77
2023-03-04T19:49:11.416Z,5.63
2023-03-04T19:51:39.165Z,4.90
2023-03-04T19:54:07.103Z,3.50
2023-03-04T19:56:36.310Z,2.93
2023-03-04T19:59:05.140Z,3.63
2023-03-04T20:01:35.253Z,5.10
2023-03-04T20:04:05.182Z,4.27
2023-03-04T20:06:33.314Z,4.67
2023-03-04T20:09:01.817Z,2.90
2023-03-04T20:11:32.183Z,2.83
2023-03-04T20:14:03.255Z,2.80
2023-03-04T20:16:31.360Z,2.40
2023-03-04T20:19:04.142Z,2.23
2023-03-04T20:21:34.312Z,2.30
2023-03-04T20:24:03.457Z,3.40
2023-03-04T20:26:33.071Z,2.90
2023-03-04T20:29:03.295Z,2.53
2023-03-04T20:31:32.672Z,2.20
2023-03-04T20:34:01.424Z,2.83
2023-03-04T20:36:31.344Z,2.63
2023-03-04T20:39:03.283Z,3.33
2023-03-04T20:41:34.689Z,2.63
2023-03-04T20:44:04.631Z,2.63
2023-03-04T20:46:38.203Z,2.63
2023-03-04T20:49:08.279Z,2.53
2023-03-04T20:51:37.052Z,2.60
2023-03-04T20:54:06.620Z,3.47
2023-03-04T20:56:35.599Z,3.10
2023-03-04T20:59:08.235Z,3.27
2023-03-04T21:01:38.474Z,3.10
2023-03-04T21:04:06.624Z,3.33
2023-03-04T21:06:36.425Z,2.23
2023-03-04T21:09:06.401Z,2.80
2023-03-04T21:11:40.161Z,2.97
2023-03-04T21:14:14.133Z,3.30
2023-03-04T21:16:42.802Z,2.97
2023-03-04T21:19:16.843Z,2.80
2023-03-04T21:21:45.665Z,3.43
2023-03-04T21:24:16.250Z,2.67
2023-03-04T21:26:45.598Z,2.50
2023-03-04T21:29:15.296Z,3.03
2023-03-04T21:31:45.572Z,3.03
2023-03-04T21:34:17.821Z,3.07
2023-03-04T21:36:45.704Z,2.90
2023-03-04T21:39:17.021Z,3.20
2023-03-04T21:41:45.439Z,2.50
2023-03-04T21:44:27.785Z,2.70
2023-03-04T21:46:57.065Z,2.70
2023-03-04T21:49:24.991Z,2.60
2023-03-04T21:51:53.324Z,2.53
2023-03-04T21:54:21.626Z,2.93
2023-03-04T21:56:50.393Z,2.63
2023-03-04T21:59:20.160Z,3.20
2023-03-04T22:01:48.093Z,3.07
2023-03-04T22:04:15.994Z,2.73
2023-03-04T22:06:43.755Z,3.20
2023-03-04T22:09:12.998Z,2.30
2023-03-04T22:11:40.759Z,2.63
2023-03-04T22:14:08.514Z,2.90
2023-03-04T22:16:48.798Z,2.87
2023-03-04T22:19:20.539Z,3.27
2023-03-04T22:21:48.222Z,2.93
2023-03-04T22:24:16.146Z,2.50
2023-03-04T22:26:44.036Z,2.50
2023-03-04T22:29:11.971Z,3.17
2023-03-04T22:31:43.033Z,2.50
2023-03-04T22:34:13.239Z,2.13
2023-03-04T22:36:43.698Z,2.80
2023-03-04T22:39:13.868Z,3.20
2023-03-04T22:41:42.795Z,2.63
2023-03-04T22:44:10.894Z,2.87
2023-03-04T22:46:39.964Z,2.60
2023-03-04T22:49:12.971Z,2.73
2023-03-04T22:51:42.788Z,2.73
2023-03-04T22:54:13.943Z,2.37
2023-03-04T22:56:41.898Z,2.60
2023-03-04T22:59:09.781Z,2.90
2023-03-04T23:01:38.219Z,2.70
2023-03-04T23:04:07.059Z,2.73
2023-03-04T23:06:37.680Z,2.63
2023-03-04T23:09:06.544Z,2.80
2023-03-04T23:11:36.720Z,2.73
2023-03-04T23:14:07.438Z,2.40
2023-03-04T23:16:38.624Z,3.03
2023-03-04T23:19:07.242Z,3.47
2023-03-04T23:21:37.920Z,3.40
2023-03-04T23:24:08.137Z,2.93
2023-03-04T23:26:38.835Z,3.47
2023-03-04T23:29:08.999Z,3.00
2023-03-04T23:31:37.063Z,2.33
2023-03-04T23:34:07.048Z,2.63
2023-03-04T23:36:38.172Z,3.37
2023-03-04T23:39:07.502Z,6.10
2023-03-04T23:41:36.058Z,2.80
2023-03-04T23:44:04.742Z,2.57
2023-03-04T23:46:32.442Z,2.50
2023-03-04T23:49:00.234Z,3.37
2023-03-04T23:51:29.772Z,3.57
2023-03-04T23:53:59.975Z,2.40
2023-03-04T23:56:30.597Z,3.30
2023-03-04T23:58:59.272Z,3.13
